Time;durP1;ratioP1;P1;durP2;ratioP2;P2;SDS_P1;SDS_P2;PMS_P1;PMS_P2;Temp;Humidity;BMP_temperature;BMP_pressure;BME280_temperature;BME280_humidity;BME280_pressure;Samples;Min_cycle;Max_cycle;Signal;HPM_P1;HPM_P2
2022/05/29 00:00:11;;;;;;;4.25;2.28;;;;;;;9.39;100.00;98404.81;4249943;33;20046;-73
2022/05/29 00:02:57;;;;;;;6.78;2.95;;;;;;;9.34;100.00;98388.66;4253012;33;20034;-73
2022/05/29 00:05:24;;;;;;;8.32;2.30;;;;;;;8.93;100.00;98329.25;4255769;33;20050;-72
2022/05/29 00:07:50;;;;;;;5.25;2.30;;;;;;;9.29;100.00;98410.13;4236940;33;20082;-72
2022/05/29 00:10:17;;;;;;;5.47;2.30;;;;;;;9.21;100.00;98397.19;4253747;33;20378;-73
2022/05/29 00:12:44;;;;;;;6.97;2.35;;;;;;;8.77;100.00;98343.62;4244191;33;20699;-73
2022/05/29 00:15:12;;;;;;;5.95;2.33;;;;;;;9.07;100.00;98351.94;4241125;33;20065;-73
2022/05/29 00:17:38;;;;;;;6.60;2.50;;;;;;;9.08;100.00;98356.25;4241560;33;20391;-73
2022/05/29 00:20:06;;;;;;;7.15;2.30;;;;;;;9.14;100.00;98396.56;4239635;33;20065;-73
2022/05/29 00:22:33;;;;;;;6.93;2.53;;;;;;;9.40;100.00;98406.47;4240798;33;20259;-73
2022/05/29 00:25:01;;;;;;;5.78;2.45;;;;;;;9.18;100.00;98398.47;4239950;33;20034;-73
2022/05/29 00:27:28;;;;;;;8.50;2.17;;;;;;;9.26;100.00;98405.28;4241551;33;20384;-73
2022/05/29 00:29:54;;;;;;;6.90;2.50;;;;;;;9.14;100.00;98401.94;4246511;33;20360;-73
2022/05/29 00:32:20;;;;;;;8.32;2.28;;;;;;;9.37;100.00;98385.47;4254599;33;20532;-73
2022/05/29 00:34:47;;;;;;;4.18;2.05;;;;;;;9.22;100.00;98394.22;4255839;33;20387;-72
2022/05/29 00:37:13;;;;;;;5.22;2.40;;;;;;;9.27;100.00;98390.78;4231523;33;20034;-72
2022/05/29 00:39:40;;;;;;;5.28;2.50;;;;;;;9.00;100.00;98364.78;4240898;33;20056;-72
2022/05/29 00:42:12;;;;;;;6.15;2.50;;;;;;;9.28;100.00;98397.75;4227366;33;20046;-72
2022/05/29 00:44:39;;;;;;;4.12;2.10;;;;;;;9.09;100.00;98395.47;4245793;33;20366;-71
2022/05/29 00:47:14;;;;;;;10.95;2.30;;;;;;;8.72;100.00;98342.50;4255375;33;20073;-72
2022/05/29 00:49:42;;;;;;;9.07;1.98;;;;;;;8.84;100.00;98349.56;4241974;33;20060;-73
2022/05/29 00:52:28;;;;;;;3.78;2.62;;;;;;;9.05;100.00;98397.03;4241304;33;20033;-73
2022/05/29 00:55:01;;;;;;;8.32;3.10;;;;;;;8.84;100.00;98376.41;4255662;33;20042;-73
2022/05/29 00:57:35;;;;;;;4.50;2.47;;;;;;;9.07;100.00;98397.56;4253673;33;20337;-73
2022/05/29 01:00:11;;;;;;;6.05;2.60;;;;;;;9.02;100.00;98384.13;4254828;33;20058;-73
2022/05/29 01:02:39;;;;;;;4.82;2.22;;;;;;;8.70;100.00;98371.47;4228992;33;20035;-73
2022/05/29 01:05:08;;;;;;;4.97;2.37;;;;;;;8.85;100.00;98372.69;4240007;33;20068;-74
2022/05/29 01:07:36;;;;;;;2.08;1.77;;;;;;;8.68;100.00;98383.50;4227489;33;20068;-73
2022/05/29 01:10:05;;;;;;;6.28;3.03;;;;;;;8.50;100.00;98380.13;4246305;33;20039;-73
2022/05/29 01:12:44;;;;;;;21.62;4.20;;;;;;;8.60;100.00;98376.75;4255000;33;20090;-73
2022/05/29 01:15:37;;;;;;;3.83;2.25;;;;;;;8.48;100.00;98335.81;4253718;33;20046;-73
2022/05/29 01:18:13;;;;;;;11.20;2.20;;;;;;;8.65;100.00;98371.44;4255017;33;20038;-73
2022/05/29 01:21:07;;;;;;;6.22;2.72;;;;;;;8.48;100.00;98341.19;4253420;33;20051;-73
2022/05/29 01:24:05;;;;;;;6.43;2.78;;;;;;;8.69;100.00;98375.22;4252871;33;20356;-73
2022/05/29 01:27:03;;;;;;;5.43;2.60;;;;;;;8.76;100.00;98376.87;4253728;33;20085;-74
2022/05/29 01:29:51;;;;;;;3.42;2.45;;;;;;;8.64;100.00;98359.06;4228129;33;20932;-73
2022/05/29 01:32:30;;;;;;;6.18;2.30;;;;;;;8.78;100.00;98364.03;4252127;33;20068;-73
2022/05/29 01:35:12;;;;;;;10.68;2.85;;;;;;;8.37;100.00;98335.69;4239183;33;20046;-74
2022/05/29 01:41:14;;;;;;;4.18;2.47;;;;;;;8.67;100.00;98377.34;4251807;33;20084;-73
2022/05/29 01:43:51;;;;;;;3.28;2.30;;;;;;;8.72;100.00;98372.03;4253910;33;20099;-73
2022/05/29 01:46:23;;;;;;;5.53;2.95;;;;;;;8.66;100.00;98377.59;4254742;33;20060;-73
2022/05/29 01:49:14;;;;;;;7.70;2.90;;;;;;;8.79;100.00;98385.25;4243016;33;20083;-73
2022/05/29 01:51:53;;;;;;;2.58;2.37;;;;;;;8.80;100.00;98370.75;4254344;33;20042;-72
2022/05/29 01:54:41;;;;;;;6.47;3.30;;;;;;;8.41;100.00;98329.81;4228381;33;20052;-72
2022/05/29 01:57:25;;;;;;;8.90;3.10;;;;;;;8.61;100.00;98378.34;4247230;33;20068;-72
2022/05/29 02:00:05;;;;;;;2.70;2.50;;;;;;;8.42;100.00;98315.34;4254805;33;20358;-72
2022/05/29 02:02:39;;;;;;;13.07;2.92;;;;;;;8.77;100.00;98373.16;4253493;33;20078;-72
2022/05/29 02:05:15;;;;;;;4.65;2.60;;;;;;;9.04;100.00;98365.06;4254654;33;20387;-72
2022/05/29 02:07:48;;;;;;;11.73;2.55;;;;;;;8.66;100.00;98332.81;4253922;33;20166;-72
2022/05/29 02:10:33;;;;;;;7.57;2.72;;;;;;;9.09;100.00;98379.34;4252668;33;20084;-73
2022/05/29 02:13:10;;;;;;;6.00;2.55;;;;;;;8.97;100.00;98380.59;4246516;33;20100;-72
2022/05/29 02:15:49;;;;;;;7.07;2.40;;;;;;;8.79;100.00;98363.78;4248023;33;20145;-73
2022/05/29 02:18:26;;;;;;;5.50;2.95;;;;;;;8.68;100.00;98330.66;4241335;33;20039;-73
2022/05/29 02:20:58;;;;;;;8.85;2.58;;;;;;;8.59;100.00;98375.13;4239899;33;20047;-73
2022/05/29 02:23:36;;;;;;;4.30;2.08;;;;;;;8.58;100.00;98351.22;4237585;33;20055;-72
2022/05/29 02:26:08;;;;;;;8.43;3.90;;;;;;;8.64;100.00;98372.47;4231297;33;20380;-72
2022/05/29 02:28:40;;;;;;;2.10;1.90;;;;;;;8.65;100.00;98373.31;4254134;33;20042;-72
2022/05/29 02:31:21;;;;;;;8.43;2.33;;;;;;;8.65;100.00;98387.53;4251031;33;20085;-72
2022/05/29 02:34:14;;;;;;;8.95;3.70;;;;;;;8.61;100.00;98367.63;4253962;33;20437;-72
2022/05/29 02:36:53;;;;;;;6.60;2.80;;;;;;;8.79;100.00;98384.44;4242767;33;20060;-72
2022/05/29 02:39:22;;;;;;;7.32;2.50;;;;;;;8.58;100.00;98378.06;4239914;33;20077;-73
2022/05/29 02:42:14;;;;;;;6.15;2.53;;;;;;;8.61;100.00;98375.66;4241328;33;20051;-73
2022/05/29 02:45:02;;;;;;;5.95;2.28;;;;;;;8.42;100.00;98336.81;4240094;33;20392;-72
2022/05/29 02:47:42;;;;;;;7.15;3.78;;;;;;;8.71;100.00;98381.16;4237697;33;20470;-73
2022/05/29 02:50:26;;;;;;;3.22;2.40;;;;;;;8.53;100.00;98381.50;4240144;33;20065;-73
2022/05/29 02:52:54;;;;;;;14.55;2.58;;;;;;;8.61;100.00;98381.03;4253833;33;20376;-72
2022/05/29 02:55:23;;;;;;;9.50;3.05;;;;;;;8.49;100.00;98380.38;4251660;33;20046;-73
2022/05/29 02:57:58;;;;;;;9.02;2.72;;;;;;;8.49;100.00;98380.38;4241288;33;20080;-72
2022/05/29 03:00:26;;;;;;;5.43;2.58;;;;;;;8.56;100.00;98389.03;4254130;33;20199;-73
2022/05/29 03:03:01;;;;;;;6.30;2.55;;;;;;;8.18;100.00;98311.09;4253148;33;20030;-73
2022/05/29 03:05:48;;;;;;;9.23;2.53;;;;;;;8.44;100.00;98348.13;4251113;33;21029;-72
2022/05/29 03:08:35;;;;;;;5.03;2.70;;;;;;;8.58;100.00;98392.28;4239584;33;20046;-72
2022/05/29 03:11:11;;;;;;;7.22;2.50;;;;;;;8.75;100.00;98389.50;4251987;33;20049;-72
2022/05/29 03:13:48;;;;;;;8.93;2.90;;;;;;;8.41;100.00;98346.72;4240752;33;20052;-72
2022/05/29 03:16:15;;;;;;;4.90;3.40;;;;;;;8.77;100.00;98391.94;4252061;33;20062;-73
2022/05/29 03:19:22;;;;;;;6.15;2.70;;;;;;;8.56;100.00;98397.09;4246624;33;20880;-72
2022/05/29 03:22:00;;;;;;;5.75;2.90;;;;;;;8.76;100.00;98396.50;4239167;33;20053;-73
2022/05/29 03:24:41;;;;;;;4.82;2.72;;;;;;;8.37;100.00;98338.34;4256317;33;20076;-72
2022/05/29 03:27:29;;;;;;;5.28;2.62;;;;;;;8.87;100.00;98402.75;4256429;33;20072;-73
2022/05/29 03:30:25;;;;;;;6.62;2.22;;;;;;;8.41;100.00;98348.59;4256500;33;20391;-73
2022/05/29 03:32:56;;;;;;;10.60;3.00;;;;;;;8.59;100.00;98395.78;4241641;33;20286;-73
2022/05/29 03:35:29;;;;;;;5.00;2.33;;;;;;;8.47;100.00;98406.63;4242120;33;20073;-73
2022/05/29 03:37:57;;;;;;;8.88;2.37;;;;;;;8.53;100.00;98408.31;4241948;33;20051;-73
2022/05/29 03:40:26;;;;;;;5.12;2.80;;;;;;;8.51;100.00;98410.44;4248071;33;20334;-73
2022/05/29 03:42:53;;;;;;;3.25;2.28;;;;;;;8.46;100.00;98419.25;4254586;33;20370;-73
2022/05/29 03:45:21;;;;;;;4.07;2.50;;;;;;;8.15;100.00;98353.66;4243643;33;20034;-74
2022/05/29 03:47:47;;;;;;;3.03;2.33;;;;;;;8.25;100.00;98407.44;4256398;33;20038;-71
2022/05/29 03:50:16;;;;;;;5.18;2.53;;;;;;;8.25;100.00;98418.16;4256643;33;20031;-73
2022/05/29 03:52:43;;;;;;;3.62;2.33;;;;;;;8.45;100.00;98400.72;4253739;33;20088;-72
2022/05/29 03:55:11;;;;;;;10.48;3.15;;;;;;;8.50;100.00;98398.09;4256163;33;20428;-73
2022/05/29 03:57:38;;;;;;;7.07;2.53;;;;;;;8.61;100.00;98412.44;4243244;33;20076;-72
2022/05/29 04:00:08;;;;;;;3.55;2.37;;;;;;;8.28;100.00;98355.97;4256320;33;20371;-73
2022/05/29 04:02:40;;;;;;;5.20;1.95;;;;;;;8.34;100.00;98367.56;4254345;33;20026;-73
2022/05/29 04:05:13;;;;;;;4.00;2.58;;;;;;;8.58;100.00;98410.25;4255296;33;20062;-73
2022/05/29 04:13:11;;;;;;;8.48;3.12;;;;;;;8.81;100.00;98406.47;4255779;33;20060;-72
2022/05/29 04:15:45;;;;;;;8.55;2.40;;;;;;;8.35;100.00;98359.28;4255396;33;20054;-73
2022/05/29 04:18:12;;;;;;;6.45;2.80;;;;;;;8.65;100.00;98405.50;4242855;33;20072;-72
2022/05/29 04:20:39;;;;;;;7.62;2.67;;;;;;;8.86;100.00;98406.53;4255811;33;20396;-73
2022/05/29 04:23:05;;;;;;;3.12;2.85;;;;;;;8.90;100.00;98413.00;4241628;33;20368;-75
2022/05/29 04:25:32;;;;;;;4.80;2.35;;;;;;;8.87;100.00;98402.75;4249887;33;20089;-75
2022/05/29 04:31:25;;;;;;;7.10;2.65;;;;;;;9.12;100.00;98414.81;4240855;33;20076;-73
2022/05/29 04:33:52;;;;;;;8.68;3.03;;;;;;;8.99;100.00;98418.72;4245599;33;20046;-73
2022/05/29 04:36:18;;;;;;;9.32;2.17;;;;;;;9.00;100.00;98406.91;4254691;33;20030;-73
2022/05/29 04:38:44;;;;;;;5.50;2.85;;;;;;;9.01;100.00;98420.06;4252946;33;20031;-73
2022/05/29 04:41:11;;;;;;;6.07;2.47;;;;;;;9.16;100.00;98405.16;4254546;33;20045;-75
2022/05/29 04:43:37;;;;;;;8.60;2.22;;;;;;;9.35;100.00;98425.22;4252884;33;20074;-74
2022/05/29 04:46:04;;;;;;;3.22;2.22;;;;;;;9.00;100.00;98378.19;4254358;33;20042;-74
2022/05/29 04:48:30;;;;;;;12.65;2.10;;;;;;;9.38;100.00;98418.50;4254737;33;20050;-74
2022/05/29 04:51:01;;;;;;;13.68;2.33;;;;;;;9.53;100.00;98404.41;4245646;33;20049;-74
2022/05/29 04:53:30;;;;;;;6.15;2.22;;;;;;;9.21;100.00;98373.00;4241222;33;20060;-73
2022/05/29 04:55:58;;;;;;;3.97;2.12;;;;;;;9.49;100.00;98403.28;4255450;33;20090;-75
2022/05/29 04:58:27;;;;;;;6.72;2.50;;;;;;;9.68;100.00;98415.25;4254865;33;20046;-75
2022/05/29 05:01:02;;;;;;;6.45;2.83;;;;;;;9.65;100.00;98383.50;4255324;33;20035;-74
2022/05/29 05:03:30;;;;;;;5.25;1.95;;;;;;;9.86;100.00;98432.03;4255218;33;20976;-73
2022/05/29 05:05:57;;;;;;;13.20;3.28;;;;;;;9.84;100.00;98420.72;4248092;33;20046;-73
2022/05/29 05:08:23;;;;;;;8.60;3.08;;;;;;;9.70;100.00;98388.94;4251299;33;20071;-74
2022/05/29 05:10:50;;;;;;;5.07;2.12;;;;;;;9.97;100.00;98429.16;4253258;33;20411;-74
2022/05/29 05:13:16;;;;;;;5.93;1.77;;;;;;;9.82;100.00;98386.84;4252234;33;20399;-74
2022/05/29 05:15:43;;;;;;;10.25;2.15;;;;;;;9.64;100.00;98368.47;4239306;33;20453;-73
2022/05/29 05:18:09;;;;;;;14.38;2.35;;;;;;;9.89;100.00;98423.44;4238231;33;20058;-73
2022/05/29 05:20:37;;;;;;;7.55;2.45;;;;;;;10.12;100.00;98428.41;4253906;33;20388;-73
2022/05/29 05:23:04;;;;;;;7.28;1.92;;;;;;;10.40;100.00;98437.16;4249164;33;20061;-74
2022/05/29 05:25:32;;;;;;;5.90;1.95;;;;;;;10.57;100.00;98441.56;4251604;33;20033;-73
2022/05/29 05:27:59;;;;;;;10.23;2.05;;;;;;;10.68;100.00;98437.81;4254155;33;20068;-73
2022/05/29 05:30:25;;;;;;;16.62;2.30;;;;;;;10.52;100.00;98437.75;4237633;33;20056;-74
2022/05/29 05:32:52;;;;;;;3.33;1.77;;;;;;;10.52;100.00;98435.06;4251811;33;20105;-73
2022/05/29 05:35:19;;;;;;;2.97;1.40;;;;;;;10.35;100.00;98432.59;4248712;33;20050;-74
2022/05/29 05:37:45;;;;;;;4.15;2.03;;;;;;;10.32;100.00;98418.81;4239737;33;20088;-74
2022/05/29 05:40:14;;;;;;;7.07;2.12;;;;;;;10.54;100.00;98446.37;4238819;33;20275;-74
2022/05/29 05:42:41;;;;;;;4.62;2.55;;;;;;;10.38;100.00;98404.34;4248642;33;20109;-74
2022/05/29 05:45:13;;;;;;;6.30;1.37;;;;;;;10.67;100.00;98444.28;4249110;33;20046;-73
2022/05/29 05:47:41;;;;;;;9.05;2.53;;;;;;;10.98;100.00;98452.44;4248453;33;20103;-73
2022/05/29 05:50:09;;;;;;;7.10;2.00;;;;;;;11.02;100.00;98448.94;4241572;33;20038;-75
2022/05/29 05:52:37;;;;;;;4.10;1.73;;;;;;;11.08;100.00;98455.16;4240481;33;20403;-74
2022/05/29 05:55:06;;;;;;;8.77;1.33;;;;;;;10.97;100.00;98456.22;4249857;33;20068;-74
2022/05/29 05:57:32;;;;;;;5.10;1.80;;;;;;;10.45;100.00;98410.31;4248086;33;20406;-73
2022/05/29 05:59:59;;;;;;;2.60;1.75;;;;;;;10.62;100.00;98452.34;4231949;33;20034;-74
2022/05/29 06:02:26;;;;;;;8.63;2.00;;;;;;;10.63;100.00;98459.34;4254418;33;20404;-73
2022/05/29 06:04:53;;;;;;;6.05;1.77;;;;;;;10.87;100.00;98449.72;4252113;33;20042;-74
2022/05/29 06:07:19;;;;;;;8.63;1.70;;;;;;;10.76;100.00;98445.38;4249695;33;20051;-74
2022/05/29 06:09:45;;;;;;;2.50;2.20;;;;;;;10.94;100.00;98436.00;4240501;33;20054;-73
2022/05/29 06:12:12;;;;;;;2.08;1.80;;;;;;;10.65;100.00;98414.13;4240517;33;20078;-74
2022/05/29 06:14:38;;;;;;;9.60;2.05;;;;;;;10.77;100.00;98443.50;4248193;33;20046;-75
2022/05/29 06:17:05;;;;;;;5.85;1.48;;;;;;;10.75;100.00;98391.78;4252396;33;20058;-75
2022/05/29 06:19:32;;;;;;;4.75;2.37;;;;;;;10.93;100.00;98425.50;4242916;33;20051;-73
2022/05/29 06:21:58;;;;;;;7.65;1.58;;;;;;;11.14;100.00;98448.69;4246652;33;20034;-73
2022/05/29 06:24:24;;;;;;;4.07;1.83;;;;;;;10.96;100.00;98403.41;4246788;33;20392;-73
2022/05/29 06:26:56;;;;;;;6.85;2.40;;;;;;;10.57;100.00;98390.41;4230532;33;20175;-74
2022/05/29 06:29:30;;;;;;;4.82;1.75;;;;;;;11.08;100.00;98447.88;4248412;33;20058;-74
2022/05/29 06:32:05;;;;;;;7.10;2.15;;;;;;;10.88;100.00;98408.25;4250743;33;20046;-74
2022/05/29 06:34:33;;;;;;;6.00;2.33;;;;;;;11.33;100.00;98449.00;4250352;33;20082;-73
2022/05/29 06:37:04;;;;;;;2.78;1.20;;;;;;;11.19;100.00;98456.78;4237853;33;20042;-74
2022/05/29 06:39:30;;;;;;;8.65;1.87;;;;;;;11.16;100.00;98451.13;4239414;33;20123;-74
2022/05/29 06:41:58;;;;;;;7.50;2.37;;;;;;;11.32;100.00;98449.25;4239340;33;20058;-74
2022/05/29 06:44:24;;;;;;;5.30;1.83;;;;;;;11.62;100.00;98451.94;4252128;33;20058;-73
2022/05/29 06:46:51;;;;;;;3.20;2.25;;;;;;;11.86;100.00;98459.47;4251377;33;20373;-75
2022/05/29 06:49:17;;;;;;;5.68;1.62;;;;;;;11.62;100.00;98453.84;4253755;33;20062;-73
2022/05/29 06:51:44;;;;;;;5.05;1.80;;;;;;;11.61;100.00;98457.59;4249550;33;20050;-73
2022/05/29 06:54:10;;;;;;;9.45;2.65;;;;;;;11.73;100.00;98449.25;4228617;33;20031;-74
2022/05/29 06:56:37;;;;;;;6.30;1.60;;;;;;;11.66;100.00;98432.53;4252075;33;20047;-73
2022/05/29 06:59:06;;;;;;;9.68;2.12;;;;;;;11.53;100.00;98418.50;4254683;33;20064;-75
2022/05/29 07:07:10;;;;;;;7.82;1.92;;;;;;;12.08;100.00;98429.53;4255775;33;20128;-74
2022/05/29 07:09:41;;;;;;;2.50;1.10;;;;;;;12.43;100.00;98468.28;4250178;33;20469;-75
2022/05/29 07:12:20;;;;;;;11.23;1.62;;;;;;;12.29;100.00;98473.44;4235495;33;20042;-75
2022/05/29 07:14:58;;;;;;;9.55;1.87;;;;;;;12.28;100.00;98485.31;4244148;33;20084;-74
2022/05/29 07:17:26;;;;;;;3.75;2.28;;;;;;;12.29;100.00;98451.84;4232620;33;20496;-74
2022/05/29 07:19:54;;;;;;;4.78;1.80;;;;;;;12.21;100.00;98444.34;4254867;33;20079;-74
2022/05/29 07:22:20;;;;;;;1.83;1.27;;;;;;;12.72;100.00;98481.12;4246999;33;20747;-74
2022/05/29 07:24:48;;;;;;;12.32;2.05;;;;;;;12.32;100.00;98491.00;4229712;33;20038;-74
2022/05/29 07:27:15;;;;;;;3.30;1.60;;;;;;;11.98;100.00;98489.72;4240891;33;20106;-74
2022/05/29 07:29:42;;;;;;;6.72;2.08;;;;;;;12.25;100.00;98499.37;4249842;33;20047;-74
2022/05/29 07:32:10;;;;;;;6.15;2.15;;;;;;;12.28;100.00;98493.41;4244561;33;20451;-75
2022/05/29 07:34:37;;;;;;;3.22;1.30;;;;;;;12.51;100.00;98491.22;4242095;33;20112;-74
2022/05/29 07:37:05;;;;;;;4.68;2.00;;;;;;;12.10;100.00;98453.53;4229048;33;20046;-75
2022/05/29 07:39:36;;;;;;;6.82;1.75;;;;;;;12.20;100.00;98491.28;4234825;33;20043;-75
2022/05/29 07:44:50;;;;;;;4.85;1.27;;;;;;;12.25;100.00;98493.97;4244299;33;20090;-73
2022/05/29 07:47:17;;;;;;;5.87;1.48;;;;;;;12.19;100.00;98511.28;4247791;33;20060;-74
2022/05/29 07:49:43;;;;;;;8.98;1.70;;;;;;;11.90;100.00;98457.88;4242732;33;20215;-75
2022/05/29 07:52:10;;;;;;;2.37;1.15;;;;;;;12.21;100.00;98492.91;4247716;33;20112;-74
2022/05/29 07:54:36;;;;;;;5.80;1.37;;;;;;;11.93;100.00;98454.63;4248362;33;20069;-74
2022/05/29 07:57:03;;;;;;;5.93;1.50;;;;;;;12.41;100.00;98475.84;4249091;33;20077;-74
2022/05/29 07:59:30;;;;;;;4.78;1.27;;;;;;;12.76;100.00;98471.38;4248336;33;20054;-73
2022/05/29 08:01:57;;;;;;;4.93;1.30;;;;;;;12.27;100.00;98451.34;4235561;33;20479;-75
2022/05/29 08:04:24;;;;;;;6.65;1.20;;;;;;;12.63;100.00;98483.59;4242753;33;20124;-74
2022/05/29 08:06:50;;;;;;;7.57;2.03;;;;;;;12.61;100.00;98495.78;4243762;33;20126;-74
2022/05/29 08:09:16;;;;;;;5.80;1.30;;;;;;;12.87;100.00;98488.34;4245599;33;20064;-74
2022/05/29 08:11:43;;;;;;;6.18;1.50;;;;;;;12.94;100.00;98488.88;4256027;33;20097;-75
2022/05/29 08:14:16;;;;;;;3.08;1.23;;;;;;;13.01;100.00;98492.06;4252610;33;20061;-74
2022/05/29 08:16:43;;;;;;;2.95;1.23;;;;;;;13.11;100.00;98499.28;4235842;33;20046;-72
2022/05/29 08:19:09;;;;;;;8.57;1.20;;;;;;;13.17;100.00;98497.38;4242731;33;20034;-73
2022/05/29 08:21:37;;;;;;;6.30;1.10;;;;;;;12.70;100.00;98461.69;4252997;33;20072;-74
2022/05/29 08:32:20;;;;;;;4.05;1.15;;;;;;;12.83;100.00;98498.91;4248651;33;20064;-77
2022/05/29 08:34:46;;;;;;;3.97;1.27;;;;;;;12.24;100.00;98451.06;4252383;33;20173;-74
2022/05/29 08:37:13;;;;;;;1.60;1.05;;;;;;;12.25;100.00;98499.37;4243530;33;20408;-75
2022/05/29 08:39:39;;;;;;;7.53;1.17;;;;;;;12.23;100.00;98500.75;4248471;33;20061;-74
2022/05/29 08:42:08;;;;;;;4.85;1.40;;;;;;;12.04;100.00;98460.03;4237684;33;20043;-76
2022/05/29 08:44:49;;;;;;;6.20;1.50;;;;;;;12.64;100.00;98498.72;4241475;33;20038;-74
2022/05/29 08:47:26;;;;;;;5.37;1.42;;;;;;;12.68;100.00;98486.28;4241278;33;20090;-77
2022/05/29 08:49:52;;;;;;;1.85;1.20;;;;;;;12.62;100.00;98449.59;4244303;33;20081;-75
2022/05/29 08:52:30;;;;;;;2.05;1.15;;;;;;;12.78;100.00;98507.03;4249439;33;20039;-75
2022/05/29 08:55:12;;;;;;;11.05;1.08;;;;;;;12.72;100.00;98506.25;4254562;33;20053;-75
2022/05/29 08:57:48;;;;;;;8.98;1.45;;;;;;;13.20;100.00;98496.81;4237854;33;20388;-76
2022/05/29 09:00:21;;;;;;;2.80;1.20;;;;;;;12.58;100.00;98464.72;4248112;33;20403;-75
2022/05/29 09:03:26;;;;;;;4.78;1.30;;;;;;;13.16;100.00;98495.75;4234147;33;20060;-75
2022/05/29 09:08:37;;;;;;;2.83;1.02;;;;;;;13.52;100.00;98490.16;4240872;33;20042;-76
2022/05/29 09:11:16;;;;;;;4.15;1.20;;;;;;;13.57;100.00;98500.94;4227175;33;20624;-74
2022/05/29 09:13:53;;;;;;;4.53;1.25;;;;;;;13.42;100.00;98505.34;4228400;33;20072;-73
2022/05/29 09:16:23;;;;;;;3.45;1.70;;;;;;;13.47;100.00;98453.13;4241080;33;20089;-73
2022/05/29 09:19:10;;;;;;;4.45;1.30;;;;;;;13.99;100.00;98499.47;4245013;33;20349;-74
2022/05/29 09:22:00;;;;;;;3.58;1.00;;;;;;;14.24;100.00;98513.88;4253391;33;20079;-75
2022/05/29 09:24:54;;;;;;;3.72;1.50;;;;;;;13.52;100.00;98463.09;4249395;33;20127;-77
2022/05/29 09:27:20;;;;;;;7.75;1.25;;;;;;;13.75;100.00;98459.66;4238386;33;20165;-76
2022/05/29 09:29:49;;;;;;;6.47;1.40;;;;;;;13.93;100.00;98501.44;4233204;33;20058;-76
2022/05/29 09:32:23;;;;;;;4.60;2.12;;;;;;;13.94;100.00;98496.81;4243285;33;20083;-77
2022/05/29 09:35:19;;;;;;;4.25;1.20;;;;;;;14.04;100.00;98504.88;4242429;33;20066;-75
2022/05/29 09:38:04;;;;;;;7.05;1.42;;;;;;;13.94;100.00;98496.81;4218273;33;20043;-77
2022/05/29 09:43:22;;;;;;;4.87;1.50;;;;;;;14.51;100.00;98495.16;4246557;33;20149;-76
2022/05/29 09:45:49;;;;;;;4.97;1.42;;;;;;;14.69;100.00;98499.06;4245377;33;20055;-77
2022/05/29 09:51:24;;;;;;;1.08;0.90;;;;;;;13.80;100.00;98494.78;4249374;33;20128;-77
2022/05/29 09:53:56;;;;;;;5.62;1.55;;;;;;;14.11;100.00;98491.78;4247951;33;20067;-75
2022/05/29 09:56:35;;;;;;;8.95;1.25;;;;;;;14.10;100.00;98487.47;4245571;33;20066;-75
2022/05/29 09:59:12;;;;;;;3.28;0.95;;;;;;;14.52;100.00;98507.63;4241969;33;20349;-77
2022/05/29 10:01:45;;;;;;;2.55;0.90;;;;;;;14.45;100.00;98503.62;4253220;33;20068;-76
2022/05/29 10:04:13;;;;;;;5.65;1.77;;;;;;;14.03;100.00;98508.66;4242391;33;20076;-75
2022/05/29 10:06:43;;;;;;;3.87;1.30;;;;;;;13.98;100.00;98514.13;4240121;33;20046;-76
2022/05/29 10:09:21;;;;;;;5.30;1.40;;;;;;;14.03;100.00;98508.66;4244757;33;20069;-77
2022/05/29 10:11:59;;;;;;;7.62;1.65;;;;;;;13.71;100.00;98511.91;4248056;33;20070;-76
2022/05/29 10:14:36;;;;;;;4.70;1.20;;;;;;;13.63;100.00;98510.62;4250993;33;20071;-76
2022/05/29 10:17:29;;;;;;;3.72;1.08;;;;;;;13.84;100.00;98499.63;4238228;33;20119;-76
2022/05/29 10:19:55;;;;;;;;;;;;;;;13.96;100.00;98494.63;4236955;33;20433;-75
2022/05/29 10:22:55;;;;;;;2.58;1.73;;;;;;;13.78;100.00;98502.38;4249511;33;20342;-75
2022/05/29 10:25:30;;;;;;;1.45;1.10;;;;;;;14.33;100.00;98501.34;4240737;33;20060;-76
2022/05/29 10:28:02;;;;;;;3.25;1.27;;;;;;;13.84;100.00;98486.09;4252706;33;20088;-76
2022/05/29 10:30:56;;;;;;;2.37;0.70;;;;;;;13.89;100.00;98502.28;4238545;33;20074;-76
2022/05/29 10:33:32;;;;;;;5.80;1.52;;;;;;;14.15;100.00;98490.13;4236294;33;20108;-76
2022/05/29 10:36:19;;;;;;;2.90;1.20;;;;;;;14.31;100.00;98508.91;4231887;33;20311;-76
2022/05/29 10:38:46;;;;;;;3.65;1.00;;;;;;;14.29;100.00;98489.44;4242703;33;20094;-77
2022/05/29 10:41:31;;;;;;;23.17;8.52;;;;;;;14.28;100.00;98482.41;4248130;33;20119;-75
2022/05/29 10:43:58;;;;;;;4.32;1.30;;;;;;;14.72;100.00;98492.25;4235815;33;20054;-74
2022/05/29 10:46:48;;;;;;;1.80;0.98;;;;;;;14.87;100.00;98477.66;4245136;33;20053;-76
2022/05/29 10:49:34;;;;;;;3.53;0.95;;;;;;;15.00;100.00;98485.09;4244591;33;20093;-75
2022/05/29 10:52:19;;;;;;;1.90;1.15;;;;;;;14.98;100.00;98413.28;4232620;33;20035;-77
2022/05/29 10:54:52;;;;;;;1.05;0.93;;;;;;;14.78;98.03;98487.56;4247316;33;20085;-75
2022/05/29 10:57:48;;;;;;;2.75;1.08;;;;;;;15.35;89.85;98487.59;4242777;33;20383;-74
2022/05/29 11:00:29;;;;;;;4.43;1.10;;;;;;;14.57;100.00;98451.75;4240429;33;20072;-75
2022/05/29 11:03:23;;;;;;;2.30;0.93;;;;;;;14.23;100.00;98452.69;4243750;33;20046;-76
2022/05/29 11:05:53;;;;;;;3.42;0.77;;;;;;;14.25;89.95;98453.19;4239436;33;20039;-76
2022/05/29 11:08:38;;;;;;;1.80;0.85;;;;;;;14.23;93.82;98485.19;4250098;33;20038;-75
2022/05/29 11:11:23;;;;;;;3.28;1.23;;;;;;;14.95;89.53;98490.59;4246496;33;20070;-74
2022/05/29 11:14:04;;;;;;;3.20;1.33;;;;;;;15.48;86.49;98438.03;4246501;33;20039;-74
2022/05/29 11:16:48;;;;;;;;;;;;;;;15.87;94.96;98474.84;4232512;33;20068;-75
2022/05/29 11:19:29;;;;;;;2.15;1.40;;;;;;;16.16;94.48;98490.06;4241449;33;19942;-75
2022/05/29 11:22:06;;;;;;;5.57;1.30;;;;;;;16.87;87.80;98476.22;4224461;33;20047;-75
2022/05/29 11:25:04;;;;;;;7.20;2.95;;;;;;;17.03;89.84;98474.78;4238600;33;20031;-77
2022/05/29 11:27:46;;;;;;;2.08;1.50;;;;;;;16.43;88.97;98489.28;4230730;33;20042;-76
2022/05/29 11:30:23;;;;;;;1.37;1.23;;;;;;;16.84;93.98;98477.59;4234934;33;20340;-76
2022/05/29 11:32:50;;;;;;;2.00;1.10;;;;;;;16.47;92.09;98475.94;4246029;33;20060;-74
2022/05/29 11:35:27;;;;;;;5.22;1.35;;;;;;;16.36;87.19;98450.06;4248405;33;20046;-76
2022/05/29 11:37:59;;;;;;;5.30;1.10;;;;;;;16.25;86.18;98482.84;4250283;33;20081;-74
2022/05/29 11:40:31;;;;;;;4.15;1.67;;;;;;;17.19;84.74;98467.09;4248988;33;20038;-74
2022/05/29 11:43:04;;;;;;;;;;;;;;;17.65;82.92;98473.38;4248056;33;20049;-75
2022/05/29 11:51:55;;;;;;;1.45;0.93;;;;;;;16.73;86.76;98475.41;4247985;33;20046;-75
2022/05/29 11:54:37;;;;;;;2.67;1.08;;;;;;;16.84;92.27;98427.88;4249464;33;20038;-75
2022/05/29 11:57:23;;;;;;;2.62;1.30;;;;;;;17.30;81.25;98467.66;4234429;33;20077;-75
2022/05/29 12:00:00;;;;;;;1.85;1.08;;;;;;;16.36;75.41;98461.72;4231762;33;20177;-75
2022/05/29 12:02:50;;;;;;;1.83;1.00;;;;;;;16.20;83.59;98446.84;4250960;33;20151;-75
2022/05/29 12:05:29;;;;;;;3.92;1.50;;;;;;;16.89;85.70;98479.44;4241835;33;20059;-76
2022/05/29 12:08:30;;;;;;;2.80;1.60;;;;;;;17.09;85.88;98440.13;4240903;33;20043;-74
2022/05/29 12:11:15;;;;;;;4.25;1.20;;;;;;;18.15;77.06;98426.06;4241920;33;20038;-74
2022/05/29 12:14:02;;;;;;;2.53;0.95;;;;;;;18.29;78.63;98481.28;4239196;33;20042;-76
2022/05/29 12:16:31;;;;;;;2.17;1.00;;;;;;;17.43;74.92;98458.62;4242923;33;20038;-75
2022/05/29 12:19:01;;;;;;;1.60;1.00;;;;;;;17.53;77.94;98476.63;4246370;33;20068;-75
2022/05/29 12:21:49;;;;;;;2.42;1.17;;;;;;;17.41;81.91;98474.47;4238211;33;20442;-76
2022/05/29 12:24:21;;;;;;;5.65;1.35;;;;;;;17.02;88.50;98475.91;4228636;33;20031;-75
2022/05/29 12:26:52;;;;;;;1.70;0.98;;;;;;;17.34;86.30;98468.66;4240843;33;20054;-75
2022/05/29 12:29:25;;;;;;;2.53;1.00;;;;;;;16.28;92.73;98479.53;4240851;33;20035;-74
2022/05/29 12:32:05;;;;;;;4.22;1.45;;;;;;;16.28;95.57;98471.38;4244010;33;20042;-75
2022/05/29 12:34:41;;;;;;;2.20;1.45;;;;;;;16.17;97.66;98475.41;4252310;33;20042;-75
2022/05/29 12:37:27;;;;;;;3.85;1.33;;;;;;;15.79;100.00;98483.66;4246367;33;21511;-75
2022/05/29 12:40:03;;;;;;;1.48;1.00;;;;;;;15.83;100.00;98476.56;4232166;33;20077;-74
2022/05/29 12:43:05;;;;;;;6.78;1.20;;;;;;;15.81;97.41;98481.44;4245084;33;20064;-75